Meers, Oklahoma
Current Conditions -  °F | °C
As of 10:58 AM on Thursday 23 Oct 2014 (Local Time) from KFSI Reporting Station
Clear Clear  
Wind Chill: 70°   Ceiling: Unl
Heat Index: 70°   Visibility: 10mi
Dew Point: 60°   Wind: 8mph
Humidity: 70%   Direction: 190°S
Pressure: 30.12"   Gusts: NA
Location:  34.78°N, 98.58°W
Report Text: KFSI 231558Z AUTO 19007KT 10SM CLR 21/15 A3012 RMK AO2 SLP195 T02090153
Loading
Personal Weather Stations






























Interactive Weather Map New forecast layout! Learn more

10-Day Weather Forecast

Advertisements
Track Severe Weather on mobile